sensor_id;sensor_type;location;lat;lon;timestamp;pressure;altitude;pressure_sealevel;temperature
12875;BMP180;6505;51.114;13.128;2023-05-10T00:00:15;99012.00;;;19.20
12875;BMP180;6505;51.114;13.128;2023-05-10T00:02:44;99016.00;;;19.20
12875;BMP180;6505;51.114;13.128;2023-05-10T00:05:12;99008.00;;;19.20
12875;BMP180;6505;51.114;13.128;2023-05-10T00:07:40;99010.00;;;19.20
12875;BMP180;6505;51.114;13.128;2023-05-10T00:10:12;99005.00;;;19.10
12875;BMP180;6505;51.114;13.128;2023-05-10T00:12:42;98999.00;;;19.10
12875;BMP180;6505;51.114;13.128;2023-05-10T00:15:10;99002.00;;;19.10
12875;BMP180;6505;51.114;13.128;2023-05-10T00:17:39;98997.00;;;19.10
12875;BMP180;6505;51.114;13.128;2023-05-10T00:20:08;98994.00;;;19.00
12875;BMP180;6505;51.114;13.128;2023-05-10T00:22:37;98991.00;;;19.00
12875;BMP180;6505;51.114;13.128;2023-05-10T00:25:07;98993.00;;;19.00
12875;BMP180;6505;51.114;13.128;2023-05-10T00:27:36;98998.00;;;19.00
12875;BMP180;6505;51.114;13.128;2023-05-10T00:30:06;98991.00;;;18.90
12875;BMP180;6505;51.114;13.128;2023-05-10T00:32:34;98988.00;;;18.90
12875;BMP180;6505;51.114;13.128;2023-05-10T00:35:03;98987.00;;;18.90
12875;BMP180;6505;51.114;13.128;2023-05-10T00:37:32;98990.00;;;18.90
12875;BMP180;6505;51.114;13.128;2023-05-10T00:39:59;98976.00;;;18.90
12875;BMP180;6505;51.114;13.128;2023-05-10T00:42:27;98975.00;;;18.90
12875;BMP180;6505;51.114;13.128;2023-05-10T00:44:57;98977.00;;;18.80
12875;BMP180;6505;51.114;13.128;2023-05-10T00:47:25;98969.00;;;18.80
12875;BMP180;6505;51.114;13.128;2023-05-10T00:49:53;98968.00;;;18.80
12875;BMP180;6505;51.114;13.128;2023-05-10T00:52:22;98976.00;;;18.80
12875;BMP180;6505;51.114;13.128;2023-05-10T00:54:52;98967.00;;;18.80
12875;BMP180;6505;51.114;13.128;2023-05-10T00:57:21;98972.00;;;18.80
12875;BMP180;6505;51.114;13.128;2023-05-10T00:59:50;98971.00;;;18.70
12875;BMP180;6505;51.114;13.128;2023-05-10T01:02:19;98969.00;;;18.70
12875;BMP180;6505;51.114;13.128;2023-05-10T01:04:47;98967.00;;;18.70
12875;BMP180;6505;51.114;13.128;2023-05-10T01:07:16;98975.00;;;18.70
12875;BMP180;6505;51.114;13.128;2023-05-10T01:09:44;98962.00;;;18.60
12875;BMP180;6505;51.114;13.128;2023-05-10T01:12:13;98963.00;;;18.60
12875;BMP180;6505;51.114;13.128;2023-05-10T01:14:41;98966.00;;;18.60
12875;BMP180;6505;51.114;13.128;2023-05-10T01:17:10;98964.00;;;18.60
12875;BMP180;6505;51.114;13.128;2023-05-10T01:19:42;98964.00;;;18.60
12875;BMP180;6505;51.114;13.128;2023-05-10T01:22:41;98958.00;;;18.50
12875;BMP180;6505;51.114;13.128;2023-05-10T01:25:32;98958.00;;;18.50
12875;BMP180;6505;51.114;13.128;2023-05-10T01:28:39;98957.00;;;18.40
12875;BMP180;6505;51.114;13.128;2023-05-10T01:31:22;98954.00;;;18.40
12875;BMP180;6505;51.114;13.128;2023-05-10T01:34:02;98962.00;;;18.40
12875;BMP180;6505;51.114;13.128;2023-05-10T01:36:43;98935.00;;;18.40
12875;BMP180;6505;51.114;13.128;2023-05-10T01:39:20;98946.00;;;18.30
12875;BMP180;6505;51.114;13.128;2023-05-10T01:41:55;98944.00;;;18.30
12875;BMP180;6505;51.114;13.128;2023-05-10T01:44:35;98943.00;;;18.30
12875;BMP180;6505;51.114;13.128;2023-05-10T01:47:10;98948.00;;;18.30
12875;BMP180;6505;51.114;13.128;2023-05-10T01:49:46;98931.00;;;18.30
12875;BMP180;6505;51.114;13.128;2023-05-10T01:52:18;98945.00;;;18.30
12875;BMP180;6505;51.114;13.128;2023-05-10T01:54:53;98935.00;;;18.30
12875;BMP180;6505;51.114;13.128;2023-05-10T01:57:28;98940.00;;;18.20
12875;BMP180;6505;51.114;13.128;2023-05-10T02:00:01;98928.00;;;18.20
12875;BMP180;6505;51.114;13.128;2023-05-10T02:02:45;98940.00;;;18.20
12875;BMP180;6505;51.114;13.128;2023-05-10T02:05:17;98935.00;;;18.20
12875;BMP180;6505;51.114;13.128;2023-05-10T02:07:47;98948.00;;;18.20
12875;BMP180;6505;51.114;13.128;2023-05-10T02:10:16;98946.00;;;18.20
12875;BMP180;6505;51.114;13.128;2023-05-10T02:12:48;98943.00;;;18.10
12875;BMP180;6505;51.114;13.128;2023-05-10T02:15:23;98942.00;;;18.10
12875;BMP180;6505;51.114;13.128;2023-05-10T02:17:55;98943.00;;;18.10
12875;BMP180;6505;51.114;13.128;2023-05-10T02:20:26;98948.00;;;18.10
12875;BMP180;6505;51.114;13.128;2023-05-10T02:22:57;98947.00;;;18.10
12875;BMP180;6505;51.114;13.128;2023-05-10T02:25:26;98942.00;;;18.10
12875;BMP180;6505;51.114;13.128;2023-05-10T02:27:57;98938.00;;;18.00
12875;BMP180;6505;51.114;13.128;2023-05-10T02:30:26;98952.00;;;18.00
12875;BMP180;6505;51.114;13.128;2023-05-10T02:32:56;98951.00;;;18.00
12875;BMP180;6505;51.114;13.128;2023-05-10T02:35:28;98941.00;;;18.00
12875;BMP180;6505;51.114;13.128;2023-05-10T02:37:58;98947.00;;;18.00
12875;BMP180;6505;51.114;13.128;2023-05-10T02:40:28;98956.00;;;18.00
12875;BMP180;6505;51.114;13.128;2023-05-10T02:42:59;98953.00;;;17.90
12875;BMP180;6505;51.114;13.128;2023-05-10T02:45:32;98958.00;;;17.80
12875;BMP180;6505;51.114;13.128;2023-05-10T02:48:00;98959.00;;;17.90
12875;BMP180;6505;51.114;13.128;2023-05-10T02:50:32;98946.00;;;17.80
12875;BMP180;6505;51.114;13.128;2023-05-10T02:53:06;98948.00;;;17.80
12875;BMP180;6505;51.114;13.128;2023-05-10T02:55:40;98951.00;;;17.80
12875;BMP180;6505;51.114;13.128;2023-05-10T02:58:09;98951.00;;;17.80
12875;BMP180;6505;51.114;13.128;2023-05-10T03:00:37;98950.00;;;17.80
12875;BMP180;6505;51.114;13.128;2023-05-10T03:03:05;98948.00;;;17.80
12875;BMP180;6505;51.114;13.128;2023-05-10T03:05:34;98953.00;;;17.70
12875;BMP180;6505;51.114;13.128;2023-05-10T03:08:04;98944.00;;;17.70
12875;BMP180;6505;51.114;13.128;2023-05-10T03:10:44;98947.00;;;17.60
12875;BMP180;6505;51.114;13.128;2023-05-10T03:13:29;98943.00;;;17.60
12875;BMP180;6505;51.114;13.128;2023-05-10T03:16:10;98949.00;;;17.60
12875;BMP180;6505;51.114;13.128;2023-05-10T03:18:44;98944.00;;;17.50
12875;BMP180;6505;51.114;13.128;2023-05-10T03:21:18;98944.00;;;17.50
12875;BMP180;6505;51.114;13.128;2023-05-10T03:23:59;98944.00;;;17.50
12875;BMP180;6505;51.114;13.128;2023-05-10T03:26:28;98950.00;;;17.50
12875;BMP180;6505;51.114;13.128;2023-05-10T03:29:14;98943.00;;;17.50
12875;BMP180;6505;51.114;13.128;2023-05-10T03:31:43;98946.00;;;17.50
12875;BMP180;6505;51.114;13.128;2023-05-10T03:34:11;98948.00;;;17.40
12875;BMP180;6505;51.114;13.128;2023-05-10T03:36:40;98948.00;;;17.40
12875;BMP180;6505;51.114;13.128;2023-05-10T03:39:08;98947.00;;;17.40
12875;BMP180;6505;51.114;13.128;2023-05-10T03:41:37;98946.00;;;17.40
12875;BMP180;6505;51.114;13.128;2023-05-10T03:44:05;98955.00;;;17.40
12875;BMP180;6505;51.114;13.128;2023-05-10T03:46:33;98958.00;;;17.30
12875;BMP180;6505;51.114;13.128;2023-05-10T03:49:02;98954.00;;;17.30
12875;BMP180;6505;51.114;13.128;2023-05-10T03:51:30;98959.00;;;17.30
12875;BMP180;6505;51.114;13.128;2023-05-10T03:53:59;98951.00;;;17.30
12875;BMP180;6505;51.114;13.128;2023-05-10T03:56:27;98959.00;;;17.30
12875;BMP180;6505;51.114;13.128;2023-05-10T03:58:56;98957.00;;;17.20
12875;BMP180;6505;51.114;13.128;2023-05-10T04:01:23;98958.00;;;17.30
12875;BMP180;6505;51.114;13.128;2023-05-10T04:03:51;98955.00;;;17.20
12875;BMP180;6505;51.114;13.128;2023-05-10T04:06:19;98962.00;;;17.30
12875;BMP180;6505;51.114;13.128;2023-05-10T04:08:47;98959.00;;;17.20
12875;BMP180;6505;51.114;13.128;2023-05-10T04:11:17;98965.00;;;17.20
12875;BMP180;6505;51.114;13.128;2023-05-10T04:13:45;98961.00;;;17.20
12875;BMP180;6505;51.114;13.128;2023-05-10T04:16:12;98958.00;;;17.20
12875;BMP180;6505;51.114;13.128;2023-05-10T04:18:40;98963.00;;;17.20
12875;BMP180;6505;51.114;13.128;2023-05-10T04:21:11;98959.00;;;17.20
12875;BMP180;6505;51.114;13.128;2023-05-10T04:23:40;98946.00;;;17.20
12875;BMP180;6505;51.114;13.128;2023-05-10T04:26:08;98960.00;;;17.20
12875;BMP180;6505;51.114;13.128;2023-05-10T04:28:37;98962.00;;;17.20
12875;BMP180;6505;51.114;13.128;2023-05-10T04:31:07;98945.00;;;17.20
12875;BMP180;6505;51.114;13.128;2023-05-10T04:33:36;98951.00;;;17.30
12875;BMP180;6505;51.114;13.128;2023-05-10T04:36:05;98940.00;;;17.30
12875;BMP180;6505;51.114;13.128;2023-05-10T04:38:33;98946.00;;;17.30
12875;BMP180;6505;51.114;13.128;2023-05-10T04:41:06;98948.00;;;17.30
12875;BMP180;6505;51.114;13.128;2023-05-10T04:43:36;98946.00;;;17.30
12875;BMP180;6505;51.114;13.128;2023-05-10T04:46:05;98944.00;;;17.30
12875;BMP180;6505;51.114;13.128;2023-05-10T04:48:33;98944.00;;;17.30
12875;BMP180;6505;51.114;13.128;2023-05-10T04:51:01;98950.00;;;17.40
12875;BMP180;6505;51.114;13.128;2023-05-10T04:53:30;98940.00;;;17.40
12875;BMP180;6505;51.114;13.128;2023-05-10T04:55:58;98944.00;;;17.40
12875;BMP180;6505;51.114;13.128;2023-05-10T04:58:26;98930.00;;;17.50
12875;BMP180;6505;51.114;13.128;2023-05-10T05:00:55;98945.00;;;17.40
12875;BMP180;6505;51.114;13.128;2023-05-10T05:03:23;98947.00;;;17.50
12875;BMP180;6505;51.114;13.128;2023-05-10T05:05:51;98948.00;;;17.60
12875;BMP180;6505;51.114;13.128;2023-05-10T05:08:19;98947.00;;;17.60
12875;BMP180;6505;51.114;13.128;2023-05-10T05:10:48;98943.00;;;17.60
12875;BMP180;6505;51.114;13.128;2023-05-10T05:13:16;98947.00;;;17.70
12875;BMP180;6505;51.114;13.128;2023-05-10T05:15:45;98939.00;;;17.70
12875;BMP180;6505;51.114;13.128;2023-05-10T05:18:14;98943.00;;;17.70
12875;BMP180;6505;51.114;13.128;2023-05-10T05:20:42;98951.00;;;17.80
12875;BMP180;6505;51.114;13.128;2023-05-10T05:23:10;98951.00;;;17.90
12875;BMP180;6505;51.114;13.128;2023-05-10T05:25:38;98943.00;;;17.90
12875;BMP180;6505;51.114;13.128;2023-05-10T05:28:06;98947.00;;;18.00
12875;BMP180;6505;51.114;13.128;2023-05-10T05:30:34;98942.00;;;18.00
12875;BMP180;6505;51.114;13.128;2023-05-10T05:33:02;98936.00;;;18.10
12875;BMP180;6505;51.114;13.128;2023-05-10T05:35:31;98936.00;;;18.20
12875;BMP180;6505;51.114;13.128;2023-05-10T05:37:59;98935.00;;;18.20
12875;BMP180;6505;51.114;13.128;2023-05-10T05:40:27;98940.00;;;18.30
12875;BMP180;6505;51.114;13.128;2023-05-10T05:42:55;98930.00;;;18.40
12875;BMP180;6505;51.114;13.128;2023-05-10T05:45:23;98936.00;;;18.50
12875;BMP180;6505;51.114;13.128;2023-05-10T05:47:51;98934.00;;;18.50
12875;BMP180;6505;51.114;13.128;2023-05-10T05:50:19;98927.00;;;18.60
12875;BMP180;6505;51.114;13.128;2023-05-10T05:52:48;98934.00;;;18.70
12875;BMP180;6505;51.114;13.128;2023-05-10T05:55:17;98929.00;;;18.80
12875;BMP180;6505;51.114;13.128;2023-05-10T05:57:45;98930.00;;;19.00
12875;BMP180;6505;51.114;13.128;2023-05-10T06:00:14;98933.00;;;19.10
12875;BMP180;6505;51.114;13.128;2023-05-10T06:02:44;98926.00;;;19.30
12875;BMP180;6505;51.114;13.128;2023-05-10T06:05:12;98930.00;;;19.40
12875;BMP180;6505;51.114;13.128;2023-05-10T06:07:41;98915.00;;;19.60
12875;BMP180;6505;51.114;13.128;2023-05-10T06:10:10;98935.00;;;19.80
12875;BMP180;6505;51.114;13.128;2023-05-10T06:12:39;98937.00;;;20.00
12875;BMP180;6505;51.114;13.128;2023-05-10T06:15:08;98933.00;;;20.10
12875;BMP180;6505;51.114;13.128;2023-05-10T06:17:36;98934.00;;;20.40
12875;BMP180;6505;51.114;13.128;2023-05-10T06:20:07;98940.00;;;20.60
12875;BMP180;6505;51.114;13.128;2023-05-10T06:22:35;98944.00;;;20.80
12875;BMP180;6505;51.114;13.128;2023-05-10T06:25:04;98940.00;;;20.90
12875;BMP180;6505;51.114;13.128;2023-05-10T06:27:33;98939.00;;;21.20
12875;BMP180;6505;51.114;13.128;2023-05-10T06:30:02;98939.00;;;21.30
12875;BMP180;6505;51.114;13.128;2023-05-10T06:32:39;98937.00;;;21.50
12875;BMP180;6505;51.114;13.128;2023-05-10T06:35:08;98942.00;;;21.80
12875;BMP180;6505;51.114;13.128;2023-05-10T06:37:36;98940.00;;;21.90
12875;BMP180;6505;51.114;13.128;2023-05-10T06:40:06;98940.00;;;22.10
12875;BMP180;6505;51.114;13.128;2023-05-10T06:42:36;98939.00;;;22.30
12875;BMP180;6505;51.114;13.128;2023-05-10T06:45:06;98943.00;;;22.50
12875;BMP180;6505;51.114;13.128;2023-05-10T06:47:35;98937.00;;;22.70
12875;BMP180;6505;51.114;13.128;2023-05-10T06:50:06;98943.00;;;22.90
12875;BMP180;6505;51.114;13.128;2023-05-10T06:52:35;98934.00;;;23.10
12875;BMP180;6505;51.114;13.128;2023-05-10T06:55:04;98939.00;;;23.30
12875;BMP180;6505;51.114;13.128;2023-05-10T06:57:32;98940.00;;;23.40
12875;BMP180;6505;51.114;13.128;2023-05-10T07:00:02;98934.00;;;23.50
12875;BMP180;6505;51.114;13.128;2023-05-10T07:02:31;98936.00;;;23.70
12875;BMP180;6505;51.114;13.128;2023-05-10T07:04:59;98939.00;;;23.80
12875;BMP180;6505;51.114;13.128;2023-05-10T07:07:29;98943.00;;;23.90
12875;BMP180;6505;51.114;13.128;2023-05-10T07:09:57;98947.00;;;23.90
12875;BMP180;6505;51.114;13.128;2023-05-10T07:12:26;98934.00;;;24.00
12875;BMP180;6505;51.114;13.128;2023-05-10T07:14:54;98942.00;;;24.10
12875;BMP180;6505;51.114;13.128;2023-05-10T07:17:23;98944.00;;;24.20
12875;BMP180;6505;51.114;13.128;2023-05-10T07:19:51;98946.00;;;24.30
12875;BMP180;6505;51.114;13.128;2023-05-10T07:22:19;98945.00;;;24.40
12875;BMP180;6505;51.114;13.128;2023-05-10T07:24:47;98952.00;;;24.50
12875;BMP180;6505;51.114;13.128;2023-05-10T07:27:15;98951.00;;;24.70
12875;BMP180;6505;51.114;13.128;2023-05-10T07:29:43;98953.00;;;24.80
12875;BMP180;6505;51.114;13.128;2023-05-10T07:32:10;98956.00;;;25.00
12875;BMP180;6505;51.114;13.128;2023-05-10T07:34:40;98964.00;;;25.10
12875;BMP180;6505;51.114;13.128;2023-05-10T07:37:08;98959.00;;;25.30
12875;BMP180;6505;51.114;13.128;2023-05-10T07:39:36;98962.00;;;25.50
12875;BMP180;6505;51.114;13.128;2023-05-10T07:42:04;98961.00;;;25.70
12875;BMP180;6505;51.114;13.128;2023-05-10T07:44:32;98961.00;;;25.90
12875;BMP180;6505;51.114;13.128;2023-05-10T07:47:00;98954.00;;;26.10
12875;BMP180;6505;51.114;13.128;2023-05-10T07:49:28;98951.00;;;26.20
12875;BMP180;6505;51.114;13.128;2023-05-10T07:51:57;98955.00;;;26.40
12875;BMP180;6505;51.114;13.128;2023-05-10T07:54:25;98954.00;;;26.60
12875;BMP180;6505;51.114;13.128;2023-05-10T07:56:53;98961.00;;;26.80
12875;BMP180;6505;51.114;13.128;2023-05-10T07:59:21;98955.00;;;26.90
12875;BMP180;6505;51.114;13.128;2023-05-10T08:01:49;98953.00;;;27.10
12875;BMP180;6505;51.114;13.128;2023-05-10T08:04:17;98963.00;;;27.20
12875;BMP180;6505;51.114;13.128;2023-05-10T08:06:45;98966.00;;;27.40
12875;BMP180;6505;51.114;13.128;2023-05-10T08:09:14;98971.00;;;27.50
12875;BMP180;6505;51.114;13.128;2023-05-10T08:11:42;98976.00;;;27.70
12875;BMP180;6505;51.114;13.128;2023-05-10T08:14:10;98976.00;;;27.80
12875;BMP180;6505;51.114;13.128;2023-05-10T08:16:38;98978.00;;;27.90
12875;BMP180;6505;51.114;13.128;2023-05-10T08:19:06;98982.00;;;28.00
12875;BMP180;6505;51.114;13.128;2023-05-10T08:21:34;98983.00;;;28.10
12875;BMP180;6505;51.114;13.128;2023-05-10T08:24:02;98976.00;;;28.10
12875;BMP180;6505;51.114;13.128;2023-05-10T08:26:32;98973.00;;;28.20
12875;BMP180;6505;51.114;13.128;2023-05-10T08:29:00;98988.00;;;28.30
12875;BMP180;6505;51.114;13.128;2023-05-10T08:31:28;98981.00;;;28.30
12875;BMP180;6505;51.114;13.128;2023-05-10T08:33:56;98987.00;;;28.30
12875;BMP180;6505;51.114;13.128;2023-05-10T08:36:24;98996.00;;;28.30
12875;BMP180;6505;51.114;13.128;2023-05-10T08:38:53;98999.00;;;28.30
12875;BMP180;6505;51.114;13.128;2023-05-10T08:41:23;98995.00;;;28.40
12875;BMP180;6505;51.114;13.128;2023-05-10T08:43:54;99000.00;;;28.30
12875;BMP180;6505;51.114;13.128;2023-05-10T08:46:23;99002.00;;;28.30
12875;BMP180;6505;51.114;13.128;2023-05-10T08:48:51;99000.00;;;28.30
12875;BMP180;6505;51.114;13.128;2023-05-10T08:51:23;98992.00;;;28.20
12875;BMP180;6505;51.114;13.128;2023-05-10T08:53:53;98988.00;;;28.20
12875;BMP180;6505;51.114;13.128;2023-05-10T08:56:21;98998.00;;;28.20
12875;BMP180;6505;51.114;13.128;2023-05-10T08:58:51;99003.00;;;28.20
12875;BMP180;6505;51.114;13.128;2023-05-10T09:01:21;98996.00;;;28.20
12875;BMP180;6505;51.114;13.128;2023-05-10T09:03:50;99001.00;;;28.20
12875;BMP180;6505;51.114;13.128;2023-05-10T09:06:18;99010.00;;;28.10
12875;BMP180;6505;51.114;13.128;2023-05-10T09:08:47;99014.00;;;28.10
12875;BMP180;6505;51.114;13.128;2023-05-10T09:11:16;99014.00;;;28.10
12875;BMP180;6505;51.114;13.128;2023-05-10T09:13:44;99015.00;;;28.00
12875;BMP180;6505;51.114;13.128;2023-05-10T09:16:13;99021.00;;;28.00
12875;BMP180;6505;51.114;13.128;2023-05-10T09:18:49;99028.00;;;27.90
12875;BMP180;6505;51.114;13.128;2023-05-10T09:21:19;99035.00;;;27.80
12875;BMP180;6505;51.114;13.128;2023-05-10T09:23:48;99032.00;;;27.70
12875;BMP180;6505;51.114;13.128;2023-05-10T09:26:17;99033.00;;;27.60
12875;BMP180;6505;51.114;13.128;2023-05-10T09:28:54;99033.00;;;27.50
12875;BMP180;6505;51.114;13.128;2023-05-10T09:31:23;99040.00;;;27.50
12875;BMP180;6505;51.114;13.128;2023-05-10T09:33:53;99036.00;;;27.40
12875;BMP180;6505;51.114;13.128;2023-05-10T09:36:21;99034.00;;;27.40
12875;BMP180;6505;51.114;13.128;2023-05-10T09:38:51;99032.00;;;27.30
12875;BMP180;6505;51.114;13.128;2023-05-10T09:41:21;99052.00;;;27.30
12875;BMP180;6505;51.114;13.128;2023-05-10T09:43:50;99055.00;;;27.20
12875;BMP180;6505;51.114;13.128;2023-05-10T09:46:23;99048.00;;;27.20
12875;BMP180;6505;51.114;13.128;2023-05-10T09:48:51;99054.00;;;27.10
12875;BMP180;6505;51.114;13.128;2023-05-10T09:51:21;99038.00;;;27.00
12875;BMP180;6505;51.114;13.128;2023-05-10T09:54:09;99051.00;;;26.90
12875;BMP180;6505;51.114;13.128;2023-05-10T09:56:38;99062.00;;;26.90
12875;BMP180;6505;51.114;13.128;2023-05-10T09:59:10;99058.00;;;26.80
12875;BMP180;6505;51.114;13.128;2023-05-10T10:01:38;99054.00;;;26.80
12875;BMP180;6505;51.114;13.128;2023-05-10T10:04:09;99061.00;;;26.80
12875;BMP180;6505;51.114;13.128;2023-05-10T10:06:39;99058.00;;;26.70
12875;BMP180;6505;51.114;13.128;2023-05-10T10:09:08;99055.00;;;26.70
12875;BMP180;6505;51.114;13.128;2023-05-10T10:11:38;99059.00;;;26.70
12875;BMP180;6505;51.114;13.128;2023-05-10T10:14:08;99061.00;;;26.60
12875;BMP180;6505;51.114;13.128;2023-05-10T10:16:36;99065.00;;;26.60
12875;BMP180;6505;51.114;13.128;2023-05-10T10:19:18;99054.00;;;26.50
12875;BMP180;6505;51.114;13.128;2023-05-10T10:21:48;99054.00;;;26.50
12875;BMP180;6505;51.114;13.128;2023-05-10T10:24:16;99053.00;;;26.40
12875;BMP180;6505;51.114;13.128;2023-05-10T10:26:45;99059.00;;;26.40
12875;BMP180;6505;51.114;13.128;2023-05-10T10:29:23;99058.00;;;26.30
12875;BMP180;6505;51.114;13.128;2023-05-10T10:32:03;99068.00;;;26.20
12875;BMP180;6505;51.114;13.128;2023-05-10T10:34:36;99068.00;;;26.20
12875;BMP180;6505;51.114;13.128;2023-05-10T10:37:07;99063.00;;;26.20
12875;BMP180;6505;51.114;13.128;2023-05-10T10:39:35;99071.00;;;26.20
12875;BMP180;6505;51.114;13.128;2023-05-10T10:42:04;99066.00;;;26.10
12875;BMP180;6505;51.114;13.128;2023-05-10T10:44:38;99071.00;;;26.10
12875;BMP180;6505;51.114;13.128;2023-05-10T10:47:22;99081.00;;;26.00
12875;BMP180;6505;51.114;13.128;2023-05-10T10:50:03;99075.00;;;25.90
12875;BMP180;6505;51.114;13.128;2023-05-10T10:52:34;99077.00;;;25.90
12875;BMP180;6505;51.114;13.128;2023-05-10T10:55:05;99073.00;;;25.90
12875;BMP180;6505;51.114;13.128;2023-05-10T10:57:45;99071.00;;;25.90
12875;BMP180;6505;51.114;13.128;2023-05-10T11:00:26;99070.00;;;25.80
12875;BMP180;6505;51.114;13.128;2023-05-10T11:02:58;99081.00;;;25.80
12875;BMP180;6505;51.114;13.128;2023-05-10T11:05:45;99087.00;;;25.80
12875;BMP180;6505;51.114;13.128;2023-05-10T11:08:18;99079.00;;;25.80
12875;BMP180;6505;51.114;13.128;2023-05-10T11:11:01;99090.00;;;25.70
12875;BMP180;6505;51.114;13.128;2023-05-10T11:13:31;99085.00;;;25.70
12875;BMP180;6505;51.114;13.128;2023-05-10T11:16:16;99089.00;;;25.60
12875;BMP180;6505;51.114;13.128;2023-05-10T11:18:58;99087.00;;;25.60
12875;BMP180;6505;51.114;13.128;2023-05-10T11:21:26;99092.00;;;25.60
12875;BMP180;6505;51.114;13.128;2023-05-10T11:23:57;99095.00;;;25.60
12875;BMP180;6505;51.114;13.128;2023-05-10T11:26:31;99099.00;;;25.60
12875;BMP180;6505;51.114;13.128;2023-05-10T11:28:59;99092.00;;;25.60
12875;BMP180;6505;51.114;13.128;2023-05-10T11:31:29;99110.00;;;25.50
12875;BMP180;6505;51.114;13.128;2023-05-10T11:33:58;99104.00;;;25.50
12875;BMP180;6505;51.114;13.128;2023-05-10T11:36:32;99108.00;;;25.50
12875;BMP180;6505;51.114;13.128;2023-05-10T11:39:02;99116.00;;;25.40
12875;BMP180;6505;51.114;13.128;2023-05-10T11:41:31;99117.00;;;25.40
12875;BMP180;6505;51.114;13.128;2023-05-10T11:43:59;99120.00;;;25.40
12875;BMP180;6505;51.114;13.128;2023-05-10T11:46:27;99129.00;;;25.40
12875;BMP180;6505;51.114;13.128;2023-05-10T11:48:59;99123.00;;;25.30
12875;BMP180;6505;51.114;13.128;2023-05-10T11:51:33;99121.00;;;25.30
12875;BMP180;6505;51.114;13.128;2023-05-10T11:54:07;99128.00;;;25.30
12875;BMP180;6505;51.114;13.128;2023-05-10T11:56:36;99128.00;;;25.30
12875;BMP180;6505;51.114;13.128;2023-05-10T11:59:04;99134.00;;;25.20
12875;BMP180;6505;51.114;13.128;2023-05-10T12:01:33;99127.00;;;25.20
12875;BMP180;6505;51.114;13.128;2023-05-10T12:04:02;99135.00;;;25.20
12875;BMP180;6505;51.114;13.128;2023-05-10T12:06:37;99147.00;;;25.20
12875;BMP180;6505;51.114;13.128;2023-05-10T12:09:08;99136.00;;;25.20
12875;BMP180;6505;51.114;13.128;2023-05-10T12:11:39;99140.00;;;25.20
12875;BMP180;6505;51.114;13.128;2023-05-10T12:14:10;99137.00;;;25.10
12875;BMP180;6505;51.114;13.128;2023-05-10T12:16:38;99144.00;;;25.10
12875;BMP180;6505;51.114;13.128;2023-05-10T12:19:06;99143.00;;;25.10
12875;BMP180;6505;51.114;13.128;2023-05-10T12:21:34;99142.00;;;25.10
12875;BMP180;6505;51.114;13.128;2023-05-10T12:24:03;99146.00;;;25.00
12875;BMP180;6505;51.114;13.128;2023-05-10T12:26:35;99142.00;;;25.00
12875;BMP180;6505;51.114;13.128;2023-05-10T12:29:14;99154.00;;;25.00
12875;BMP180;6505;51.114;13.128;2023-05-10T12:31:53;99159.00;;;25.00
12875;BMP180;6505;51.114;13.128;2023-05-10T12:34:26;99157.00;;;24.90
12875;BMP180;6505;51.114;13.128;2023-05-10T12:36:55;99150.00;;;25.00
12875;BMP180;6505;51.114;13.128;2023-05-10T12:39:23;99155.00;;;24.90
12875;BMP180;6505;51.114;13.128;2023-05-10T12:41:53;99152.00;;;24.90
12875;BMP180;6505;51.114;13.128;2023-05-10T12:44:21;99160.00;;;24.90
12875;BMP180;6505;51.114;13.128;2023-05-10T12:46:49;99153.00;;;24.90
12875;BMP180;6505;51.114;13.128;2023-05-10T12:49:16;99152.00;;;24.90
12875;BMP180;6505;51.114;13.128;2023-05-10T12:51:45;99156.00;;;24.90
12875;BMP180;6505;51.114;13.128;2023-05-10T12:54:13;99161.00;;;24.90
12875;BMP180;6505;51.114;13.128;2023-05-10T12:56:41;99155.00;;;24.90
12875;BMP180;6505;51.114;13.128;2023-05-10T12:59:10;99159.00;;;24.80
12875;BMP180;6505;51.114;13.128;2023-05-10T13:01:38;99158.00;;;24.90
12875;BMP180;6505;51.114;13.128;2023-05-10T13:04:06;99160.00;;;24.80
12875;BMP180;6505;51.114;13.128;2023-05-10T13:06:34;99162.00;;;24.80
12875;BMP180;6505;51.114;13.128;2023-05-10T13:09:03;99162.00;;;24.80
12875;BMP180;6505;51.114;13.128;2023-05-10T13:11:31;99156.00;;;24.80
12875;BMP180;6505;51.114;13.128;2023-05-10T13:13:59;99162.00;;;24.80
12875;BMP180;6505;51.114;13.128;2023-05-10T13:16:28;99165.00;;;24.80
12875;BMP180;6505;51.114;13.128;2023-05-10T13:18:56;99164.00;;;24.80
12875;BMP180;6505;51.114;13.128;2023-05-10T13:21:25;99169.00;;;24.70
12875;BMP180;6505;51.114;13.128;2023-05-10T13:23:53;99172.00;;;24.70
12875;BMP180;6505;51.114;13.128;2023-05-10T13:26:21;99169.00;;;24.70
12875;BMP180;6505;51.114;13.128;2023-05-10T13:28:49;99171.00;;;24.70
12875;BMP180;6505;51.114;13.128;2023-05-10T13:31:18;99160.00;;;24.70
12875;BMP180;6505;51.114;13.128;2023-05-10T13:33:48;99161.00;;;24.70
12875;BMP180;6505;51.114;13.128;2023-05-10T13:36:16;99165.00;;;24.70
12875;BMP180;6505;51.114;13.128;2023-05-10T13:38:44;99152.00;;;24.70
12875;BMP180;6505;51.114;13.128;2023-05-10T13:41:12;99157.00;;;24.60
12875;BMP180;6505;51.114;13.128;2023-05-10T13:43:40;99151.00;;;24.60
12875;BMP180;6505;51.114;13.128;2023-05-10T13:46:08;99157.00;;;24.60
12875;BMP180;6505;51.114;13.128;2023-05-10T13:48:36;99152.00;;;24.60
12875;BMP180;6505;51.114;13.128;2023-05-10T13:51:06;99154.00;;;24.60
12875;BMP180;6505;51.114;13.128;2023-05-10T13:53:34;99147.00;;;24.60
12875;BMP180;6505;51.114;13.128;2023-05-10T13:56:02;99155.00;;;24.60
12875;BMP180;6505;51.114;13.128;2023-05-10T13:58:30;99156.00;;;24.50
12875;BMP180;6505;51.114;13.128;2023-05-10T14:00:58;99163.00;;;24.50
12875;BMP180;6505;51.114;13.128;2023-05-10T14:03:26;99157.00;;;24.50
12875;BMP180;6505;51.114;13.128;2023-05-10T14:05:54;99150.00;;;24.50
12875;BMP180;6505;51.114;13.128;2023-05-10T14:08:23;99157.00;;;24.50
12875;BMP180;6505;51.114;13.128;2023-05-10T14:10:53;99155.00;;;24.50
12875;BMP180;6505;51.114;13.128;2023-05-10T14:13:23;99162.00;;;24.40
12875;BMP180;6505;51.114;13.128;2023-05-10T14:15:53;99161.00;;;24.40
12875;BMP180;6505;51.114;13.128;2023-05-10T14:18:21;99154.00;;;24.40
12875;BMP180;6505;51.114;13.128;2023-05-10T14:20:49;99162.00;;;24.40
12875;BMP180;6505;51.114;13.128;2023-05-10T14:23:17;99161.00;;;24.40
12875;BMP180;6505;51.114;13.128;2023-05-10T14:25:47;99163.00;;;24.30